Time;durP1;ratioP1;P1;durP2;ratioP2;P2;SDS_P1;SDS_P2;PMS_P1;PMS_P2;Temp;Humidity;BMP_temperature;BMP_pressure;BME280_temperature;BME280_humidity;BME280_pressure;Samples;Min_cycle;Max_cycle;Signal;HPM_P1;HPM_P2
2022/08/26 00:00:05;;;;;;;0.28;0.28;;;;;;;;;;5048909;28;20088;-59
2022/08/26 00:02:30;;;;;;;0.00;0.00;;;;;;;;;;5047990;28;20159;-59
2022/08/26 00:04:55;;;;;;;0.00;0.00;;;;;;;;;;5048859;28;20468;-60
2022/08/26 00:07:21;;;;;;;0.00;0.00;;;;;;;;;;5049123;28;20275;-59
2022/08/26 00:09:46;;;;;;;0.00;0.00;;;;;;;;;;5049422;28;20280;-60
2022/08/26 00:12:11;;;;;;;0.00;0.00;;;;;;;;;;5049098;28;20060;-60
2022/08/26 00:14:36;;;;;;;0.00;0.00;;;;;;;;;;5049606;28;20053;-60
2022/08/26 00:17:01;;;;;;;1.50;0.50;;;;;;;;;;5049061;28;20033;-60
2022/08/26 00:19:27;;;;;;;0.00;0.00;;;;;;;;;;5049337;28;20263;-59
2022/08/26 00:21:52;;;;;;;0.00;0.00;;;;;;;;;;5048524;28;20028;-61
2022/08/26 00:24:18;;;;;;;0.00;0.00;;;;;;;;;;5049083;28;20082;-59
2022/08/26 00:26:44;;;;;;;0.10;0.10;;;;;;;;;;5048865;28;20025;-60
2022/08/26 00:29:09;;;;;;;0.00;0.00;;;;;;;;;;5048644;28;20020;-58
2022/08/26 00:31:34;;;;;;;0.00;0.00;;;;;;;;;;5047982;28;20476;-59
2022/08/26 00:33:59;;;;;;;0.17;0.17;;;;;;;;;;5048587;28;20052;-60
2022/08/26 00:36:25;;;;;;;0.30;0.30;;;;;;;;;;5049064;28;21549;-59
2022/08/26 00:38:50;;;;;;;0.00;0.00;;;;;;;;;;5048236;28;20340;-60
2022/08/26 00:41:17;;;;;;;0.00;0.00;;;;;;;;;;5048520;28;20020;-59
2022/08/26 00:43:42;;;;;;;0.00;0.00;;;;;;;;;;5048625;28;20037;-60
2022/08/26 00:46:12;;;;;;;0.22;0.22;;;;;;;;;;5047020;28;20021;-59
2022/08/26 00:48:38;;;;;;;0.47;0.47;;;;;;;;;;5048724;28;20043;-59
2022/08/26 00:51:10;;;;;;;0.00;0.00;;;;;;;;;;5048607;28;20461;-60
2022/08/26 00:53:44;;;;;;;0.30;0.30;;;;;;;;;;5050300;28;20381;-60
2022/08/26 00:56:18;;;;;;;0.00;0.00;;;;;;;;;;5047973;28;20037;-60
2022/08/26 00:58:46;;;;;;;0.13;0.13;;;;;;;;;;5047672;28;20549;-58
2022/08/26 01:01:12;;;;;;;0.00;0.00;;;;;;;;;;5048141;28;20366;-59
2022/08/26 01:03:38;;;;;;;0.00;0.00;;;;;;;;;;5048748;28;20029;-60
2022/08/26 01:06:05;;;;;;;0.00;0.00;;;;;;;;;;5048307;28;20051;-59
2022/08/26 01:08:30;;;;;;;0.20;0.20;;;;;;;;;;5048688;28;20036;-59
2022/08/26 01:10:56;;;;;;;0.00;0.00;;;;;;;;;;5048429;28;20486;-59
2022/08/26 01:13:21;;;;;;;0.00;0.00;;;;;;;;;;5048619;28;20514;-59
2022/08/26 01:15:48;;;;;;;1.38;0.25;;;;;;;;;;5048594;28;20536;-59
2022/08/26 01:18:14;;;;;;;0.00;0.00;;;;;;;;;;5048192;28;20028;-59
2022/08/26 01:21:02;;;;;;;0.00;0.00;;;;;;;;;;5048332;28;20358;-58
2022/08/26 01:23:30;;;;;;;0.00;0.00;;;;;;;;;;5048406;28;20056;-60
2022/08/26 01:25:59;;;;;;;0.00;0.00;;;;;;;;;;5048259;28;20095;-59
2022/08/26 01:28:27;;;;;;;0.00;0.00;;;;;;;;;;5047383;28;20624;-59
2022/08/26 01:30:53;;;;;;;0.00;0.00;;;;;;;;;;5048028;28;20453;-59
2022/08/26 01:33:22;;;;;;;0.00;0.00;;;;;;;;;;5048273;28;20017;-58
2022/08/26 01:35:47;;;;;;;0.00;0.00;;;;;;;;;;5048349;28;20080;-59
2022/08/26 01:38:13;;;;;;;0.00;0.00;;;;;;;;;;5047796;28;20033;-58
2022/08/26 01:40:41;;;;;;;0.00;0.00;;;;;;;;;;5048538;28;20036;-60
2022/08/26 01:43:07;;;;;;;0.00;0.00;;;;;;;;;;5048023;28;20450;-59
2022/08/26 01:45:33;;;;;;;0.00;0.00;;;;;;;;;;5048586;28;20055;-59
2022/08/26 01:48:01;;;;;;;0.00;0.00;;;;;;;;;;5047756;28;20017;-60
2022/08/26 01:50:27;;;;;;;0.00;0.00;;;;;;;;;;5048419;28;20063;-59
2022/08/26 01:52:53;;;;;;;0.00;0.00;;;;;;;;;;5049692;28;20390;-59
2022/08/26 01:55:19;;;;;;;0.00;0.00;;;;;;;;;;5051977;28;20028;-59
2022/08/26 01:57:46;;;;;;;0.00;0.00;;;;;;;;;;5050662;28;20068;-59
2022/08/26 02:00:14;;;;;;;0.00;0.00;;;;;;;;;;5050532;28;20028;-60
2022/08/26 02:02:43;;;;;;;0.00;0.00;;;;;;;;;;5051764;28;20041;-60
2022/08/26 02:05:12;;;;;;;0.00;0.00;;;;;;;;;;5051528;28;20064;-58
2022/08/26 02:07:39;;;;;;;0.40;0.40;;;;;;;;;;5052158;28;20032;-59
2022/08/26 02:10:05;;;;;;;0.00;0.00;;;;;;;;;;5051157;28;20036;-59
2022/08/26 02:12:30;;;;;;;0.00;0.00;;;;;;;;;;5051772;28;20024;-59
2022/08/26 02:14:58;;;;;;;0.00;0.00;;;;;;;;;;5051129;28;20063;-60
2022/08/26 02:17:27;;;;;;;0.00;0.00;;;;;;;;;;5050123;28;20489;-59
2022/08/26 02:19:53;;;;;;;0.00;0.00;;;;;;;;;;5051054;28;20052;-59
2022/08/26 02:22:19;;;;;;;0.00;0.00;;;;;;;;;;5051838;28;20072;-58
2022/08/26 02:24:49;;;;;;;0.00;0.00;;;;;;;;;;5048903;28;20017;-59
2022/08/26 02:27:15;;;;;;;0.00;0.00;;;;;;;;;;5050729;28;20637;-58
2022/08/26 02:29:43;;;;;;;0.00;0.00;;;;;;;;;;5051109;28;20025;-60
2022/08/26 02:32:09;;;;;;;0.00;0.00;;;;;;;;;;5050776;28;20083;-60
2022/08/26 02:34:34;;;;;;;0.00;0.00;;;;;;;;;;5051298;28;20024;-58
2022/08/26 02:37:03;;;;;;;0.00;0.00;;;;;;;;;;5051095;28;20103;-59
2022/08/26 02:39:28;;;;;;;0.00;0.00;;;;;;;;;;5050991;28;20020;-58
2022/08/26 02:41:53;;;;;;;0.00;0.00;;;;;;;;;;5051030;28;20499;-59
2022/08/26 02:44:19;;;;;;;0.00;0.00;;;;;;;;;;5050788;28;20615;-59
2022/08/26 02:46:44;;;;;;;0.00;0.00;;;;;;;;;;5050863;28;20498;-59
2022/08/26 02:49:09;;;;;;;0.00;0.00;;;;;;;;;;5050743;28;20032;-59
2022/08/26 02:51:34;;;;;;;0.00;0.00;;;;;;;;;;5049140;28;20104;-58
2022/08/26 02:54:00;;;;;;;0.00;0.00;;;;;;;;;;5049179;28;21006;-60
2022/08/26 02:56:25;;;;;;;0.00;0.00;;;;;;;;;;5050435;28;20295;-59
2022/08/26 02:58:50;;;;;;;0.00;0.00;;;;;;;;;;5050869;28;20025;-60
2022/08/26 03:01:22;;;;;;;0.00;0.00;;;;;;;;;;5050455;28;20263;-58
2022/08/26 03:03:47;;;;;;;0.00;0.00;;;;;;;;;;5050707;28;20029;-59
2022/08/26 03:06:13;;;;;;;0.00;0.00;;;;;;;;;;5050355;28;20021;-59
2022/08/26 03:08:38;;;;;;;0.00;0.00;;;;;;;;;;5050643;28;20474;-58
2022/08/26 03:11:03;;;;;;;0.00;0.00;;;;;;;;;;5050321;28;20025;-58
2022/08/26 03:13:29;;;;;;;0.00;0.00;;;;;;;;;;5050588;28;20028;-59
2022/08/26 03:15:55;;;;;;;0.00;0.00;;;;;;;;;;5050429;28;20340;-59
2022/08/26 03:18:20;;;;;;;0.00;0.00;;;;;;;;;;5050274;28;20763;-59
2022/08/26 03:20:46;;;;;;;0.00;0.00;;;;;;;;;;5050451;28;20086;-59
2022/08/26 03:23:11;;;;;;;0.00;0.00;;;;;;;;;;5048752;28;20021;-59
2022/08/26 03:25:36;;;;;;;0.00;0.00;;;;;;;;;;5050209;28;20345;-58
2022/08/26 03:28:01;;;;;;;0.00;0.00;;;;;;;;;;5049848;28;20151;-59
2022/08/26 03:30:39;;;;;;;0.00;0.00;;;;;;;;;;5050288;28;20458;-59
2022/08/26 03:33:05;;;;;;;0.00;0.00;;;;;;;;;;5050032;28;20024;-59
2022/08/26 03:35:31;;;;;;;0.00;0.00;;;;;;;;;;5050251;28;20031;-59
2022/08/26 03:37:56;;;;;;;0.00;0.00;;;;;;;;;;5050574;28;20016;-59
2022/08/26 03:40:21;;;;;;;0.00;0.00;;;;;;;;;;5050144;28;20542;-59
2022/08/26 03:42:47;;;;;;;0.00;0.00;;;;;;;;;;5049898;28;20037;-59
2022/08/26 03:45:13;;;;;;;0.00;0.00;;;;;;;;;;5049712;28;20025;-59
2022/08/26 03:47:38;;;;;;;0.00;0.00;;;;;;;;;;5050207;28;20020;-59
2022/08/26 03:50:05;;;;;;;0.00;0.00;;;;;;;;;;5047972;28;20454;-59
2022/08/26 03:52:30;;;;;;;0.50;0.50;;;;;;;;;;5048553;28;20426;-59
2022/08/26 03:54:56;;;;;;;0.00;0.00;;;;;;;;;;5049742;28;20083;-59
2022/08/26 03:57:21;;;;;;;11.15;2.30;;;;;;;;;;5048995;28;20387;-59
2022/08/26 03:59:46;;;;;;;0.00;0.00;;;;;;;;;;5050242;28;20024;-59
2022/08/26 04:02:11;;;;;;;0.40;0.40;;;;;;;;;;5048835;28;20028;-59
2022/08/26 04:04:37;;;;;;;0.00;0.00;;;;;;;;;;5049698;28;20017;-59
2022/08/26 04:07:02;;;;;;;0.00;0.00;;;;;;;;;;5048911;28;20033;-57
2022/08/26 04:09:28;;;;;;;0.10;0.10;;;;;;;;;;5049599;28;20104;-60
2022/08/26 04:11:54;;;;;;;0.43;0.43;;;;;;;;;;5049788;28;20049;-60
2022/08/26 04:14:21;;;;;;;0.52;0.52;;;;;;;;;;5049220;28;20032;-59
2022/08/26 04:16:46;;;;;;;0.00;0.00;;;;;;;;;;5049099;28;20621;-58
2022/08/26 04:19:13;;;;;;;0.00;0.00;;;;;;;;;;5047964;28;20063;-59
2022/08/26 04:21:39;;;;;;;0.00;0.00;;;;;;;;;;5046843;28;20029;-59
2022/08/26 04:24:05;;;;;;;0.00;0.00;;;;;;;;;;5048191;28;20692;-60
2022/08/26 04:26:35;;;;;;;0.00;0.00;;;;;;;;;;5048473;28;20036;-60
2022/08/26 04:29:01;;;;;;;0.00;0.00;;;;;;;;;;5047748;28;20496;-60
2022/08/26 04:31:26;;;;;;;0.00;0.00;;;;;;;;;;5048176;28;20024;-59
2022/08/26 04:33:51;;;;;;;0.00;0.00;;;;;;;;;;5048106;28;20033;-60
2022/08/26 04:36:16;;;;;;;0.00;0.00;;;;;;;;;;5047643;28;20107;-59
2022/08/26 04:38:41;;;;;;;0.00;0.00;;;;;;;;;;5048445;28;20134;-59
2022/08/26 04:41:07;;;;;;;0.00;0.00;;;;;;;;;;5047765;28;20470;-59
2022/08/26 04:43:32;;;;;;;0.00;0.00;;;;;;;;;;5048331;28;20020;-59
2022/08/26 04:46:01;;;;;;;0.00;0.00;;;;;;;;;;5047851;28;20021;-58
2022/08/26 04:48:28;;;;;;;0.00;0.00;;;;;;;;;;5047803;28;20025;-59
2022/08/26 04:50:53;;;;;;;0.00;0.00;;;;;;;;;;5047619;28;20122;-59
2022/08/26 04:53:18;;;;;;;0.00;0.00;;;;;;;;;;5048376;28;20063;-59
2022/08/26 04:55:44;;;;;;;0.43;0.43;;;;;;;;;;5048551;28;20017;-60
2022/08/26 04:58:09;;;;;;;0.00;0.00;;;;;;;;;;5048022;28;20047;-59
2022/08/26 05:00:34;;;;;;;0.00;0.00;;;;;;;;;;5048945;28;20493;-59
2022/08/26 05:02:59;;;;;;;0.00;0.00;;;;;;;;;;5048173;28;20474;-59
2022/08/26 05:05:25;;;;;;;0.00;0.00;;;;;;;;;;5048523;28;20048;-59
2022/08/26 05:07:50;;;;;;;0.00;0.00;;;;;;;;;;5048971;28;20025;-61
2022/08/26 05:10:16;;;;;;;0.00;0.00;;;;;;;;;;5048006;28;20474;-60
2022/08/26 05:12:41;;;;;;;0.00;0.00;;;;;;;;;;5048388;28;20029;-60
2022/08/26 05:15:06;;;;;;;1.85;0.28;;;;;;;;;;5048159;28;20021;-60
2022/08/26 05:17:32;;;;;;;0.00;0.00;;;;;;;;;;5047921;28;20029;-60
2022/08/26 05:19:57;;;;;;;1.00;1.00;;;;;;;;;;5047409;28;20367;-60
2022/08/26 05:22:22;;;;;;;0.00;0.00;;;;;;;;;;5047844;28;20036;-60
2022/08/26 05:24:48;;;;;;;0.03;0.03;;;;;;;;;;5048401;28;20056;-59
2022/08/26 05:27:13;;;;;;;1.25;0.52;;;;;;;;;;5048929;28;20443;-59
2022/08/26 05:29:39;;;;;;;0.00;0.00;;;;;;;;;;5052412;28;20029;-59
2022/08/26 05:32:04;;;;;;;0.00;0.00;;;;;;;;;;5052048;28;20040;-59
2022/08/26 05:34:29;;;;;;;0.35;0.35;;;;;;;;;;5052231;28;20461;-59
2022/08/26 05:36:55;;;;;;;1.85;1.85;;;;;;;;;;5052542;28;20032;-59
2022/08/26 05:39:22;;;;;;;0.00;0.00;;;;;;;;;;5052106;28;20028;-59
2022/08/26 05:41:47;;;;;;;0.00;0.00;;;;;;;;;;5051911;28;20040;-59
2022/08/26 05:44:14;;;;;;;0.00;0.00;;;;;;;;;;5051888;28;20062;-59
2022/08/26 05:46:40;;;;;;;0.00;0.00;;;;;;;;;;5051397;28;20478;-60
2022/08/26 05:49:06;;;;;;;0.00;0.00;;;;;;;;;;5050597;28;20013;-60
2022/08/26 05:51:31;;;;;;;1.48;1.35;;;;;;;;;;5051883;28;20028;-59
2022/08/26 05:53:56;;;;;;;0.15;0.15;;;;;;;;;;5051956;28;20377;-60
2022/08/26 05:56:26;;;;;;;0.52;0.28;;;;;;;;;;5051312;28;20060;-60
2022/08/26 05:58:51;;;;;;;1.20;1.13;;;;;;;;;;5052255;28;20036;-60
2022/08/26 06:01:19;;;;;;;0.65;0.65;;;;;;;;;;5051813;28;20474;-60
2022/08/26 06:03:45;;;;;;;0.10;0.10;;;;;;;;;;5050352;28;20423;-59
2022/08/26 06:06:13;;;;;;;1.13;1.13;;;;;;;;;;5051363;28;20045;-60
2022/08/26 06:08:38;;;;;;;0.00;0.00;;;;;;;;;;5052051;28;20017;-60
2022/08/26 06:11:05;;;;;;;0.30;0.30;;;;;;;;;;5050967;28;20075;-60
2022/08/26 06:13:32;;;;;;;0.45;0.45;;;;;;;;;;5051341;28;20047;-59
2022/08/26 06:15:58;;;;;;;0.00;0.00;;;;;;;;;;5050048;28;20025;-60
2022/08/26 06:18:31;;;;;;;0.00;0.00;;;;;;;;;;5050834;28;20083;-60
2022/08/26 06:20:57;;;;;;;0.00;0.00;;;;;;;;;;5051735;28;20100;-60
2022/08/26 06:26:06;;;;;;;0.00;0.00;;;;;;;;;;5050984;28;20031;-59
2022/08/26 06:28:31;;;;;;;0.00;0.00;;;;;;;;;;5051156;28;20020;-59
2022/08/26 06:30:57;;;;;;;0.00;0.00;;;;;;;;;;5051606;28;20028;-59
2022/08/26 06:33:23;;;;;;;0.00;0.00;;;;;;;;;;5050557;28;20064;-59
2022/08/26 06:35:49;;;;;;;0.00;0.00;;;;;;;;;;5050703;28;20070;-60
2022/08/26 06:38:15;;;;;;;1.65;0.50;;;;;;;;;;5050249;28;20017;-60
2022/08/26 06:40:43;;;;;;;0.43;0.43;;;;;;;;;;5050421;28;20027;-59
2022/08/26 06:43:09;;;;;;;0.00;0.00;;;;;;;;;;5050236;28;20024;-59
2022/08/26 06:45:34;;;;;;;0.00;0.00;;;;;;;;;;5050214;28;20025;-59
2022/08/26 06:48:00;;;;;;;0.00;0.00;;;;;;;;;;5050688;28;20362;-58
2022/08/26 06:50:25;;;;;;;0.00;0.00;;;;;;;;;;5050456;28;20016;-59
2022/08/26 06:52:51;;;;;;;0.00;0.00;;;;;;;;;;5050736;28;20639;-59
2022/08/26 06:55:16;;;;;;;0.10;0.10;;;;;;;;;;5050223;28;20714;-59
2022/08/26 06:57:42;;;;;;;0.00;0.00;;;;;;;;;;5050133;28;20131;-59
2022/08/26 07:00:09;;;;;;;0.00;0.00;;;;;;;;;;5050445;28;20552;-60
2022/08/26 07:02:34;;;;;;;0.00;0.00;;;;;;;;;;5050701;28;20182;-59
2022/08/26 07:04:59;;;;;;;0.08;0.08;;;;;;;;;;5050547;28;20506;-60
2022/08/26 07:07:25;;;;;;;0.00;0.00;;;;;;;;;;5050173;28;20465;-59
2022/08/26 07:09:50;;;;;;;0.00;0.00;;;;;;;;;;5050454;28;20430;-59
2022/08/26 07:12:16;;;;;;;0.35;0.35;;;;;;;;;;5049729;28;20029;-60
2022/08/26 07:14:41;;;;;;;0.25;0.20;;;;;;;;;;5049227;28;20112;-60
2022/08/26 07:17:06;;;;;;;0.00;0.00;;;;;;;;;;5049847;28;20503;-60
2022/08/26 07:19:32;;;;;;;0.32;0.32;;;;;;;;;;5050343;28;20017;-59
2022/08/26 07:22:00;;;;;;;5.15;2.15;;;;;;;;;;5050278;28;20019;-59
2022/08/26 07:24:26;;;;;;;0.00;0.00;;;;;;;;;;5049996;28;20060;-60
2022/08/26 07:26:52;;;;;;;0.00;0.00;;;;;;;;;;5050363;28;20060;-59
2022/08/26 07:29:17;;;;;;;1.35;0.47;;;;;;;;;;5049499;28;20018;-59
2022/08/26 07:31:43;;;;;;;1.55;0.60;;;;;;;;;;5049906;28;20148;-59
2022/08/26 07:34:09;;;;;;;0.40;0.32;;;;;;;;;;5049632;28;20056;-59
2022/08/26 07:36:34;;;;;;;0.20;0.20;;;;;;;;;;5050376;28;20032;-60
2022/08/26 07:39:00;;;;;;;0.43;0.43;;;;;;;;;;5049997;28;20823;-60
2022/08/26 07:41:25;;;;;;;0.00;0.00;;;;;;;;;;5049823;28;20427;-60
2022/08/26 07:43:51;;;;;;;0.22;0.22;;;;;;;;;;5048830;28;20025;-59
2022/08/26 07:46:19;;;;;;;0.28;0.28;;;;;;;;;;5049033;28;20091;-59
2022/08/26 07:48:45;;;;;;;0.20;0.20;;;;;;;;;;5049518;28;20086;-59
2022/08/26 07:51:10;;;;;;;2.40;1.17;;;;;;;;;;5048020;28;20447;-60
2022/08/26 07:53:36;;;;;;;0.00;0.00;;;;;;;;;;5049802;28;20112;-61
2022/08/26 07:56:01;;;;;;;0.40;0.40;;;;;;;;;;5049604;28;20068;-61
2022/08/26 07:58:27;;;;;;;4.18;2.55;;;;;;;;;;5049269;28;20090;-60
2022/08/26 08:00:52;;;;;;;0.38;0.38;;;;;;;;;;5048347;28;20035;-59
2022/08/26 08:03:19;;;;;;;0.35;0.35;;;;;;;;;;5049009;28;20024;-59
2022/08/26 08:05:44;;;;;;;0.00;0.00;;;;;;;;;;5049500;28;20043;-61
2022/08/26 08:08:09;;;;;;;7.88;1.85;;;;;;;;;;5048673;28;20025;-61
2022/08/26 08:10:35;;;;;;;0.00;0.00;;;;;;;;;;5048432;28;20103;-61
2022/08/26 08:13:01;;;;;;;0.00;0.00;;;;;;;;;;5049144;28;20087;-61
2022/08/26 08:15:27;;;;;;;0.22;0.22;;;;;;;;;;5048714;28;20056;-59
2022/08/26 08:17:53;;;;;;;3.53;2.28;;;;;;;;;;5049293;28;20029;-59
2022/08/26 08:20:19;;;;;;;0.03;0.03;;;;;;;;;;5048718;28;20028;-61
2022/08/26 08:22:44;;;;;;;0.00;0.00;;;;;;;;;;5049275;28;20021;-61
2022/08/26 08:25:10;;;;;;;0.95;0.93;;;;;;;;;;5048598;28;20086;-60
2022/08/26 08:27:36;;;;;;;1.38;1.13;;;;;;;;;;5049287;28;20115;-61
2022/08/26 08:30:01;;;;;;;5.47;0.70;;;;;;;;;;5048806;28;20033;-61
2022/08/26 08:32:28;;;;;;;0.10;0.10;;;;;;;;;;5048770;28;20033;-60
2022/08/26 08:34:53;;;;;;;0.28;0.28;;;;;;;;;;5048710;28;20021;-60
2022/08/26 08:37:18;;;;;;;1.43;0.97;;;;;;;;;;5048935;28;20036;-60
2022/08/26 08:39:43;;;;;;;0.20;0.20;;;;;;;;;;5048012;28;20263;-60
2022/08/26 08:42:09;;;;;;;0.00;0.00;;;;;;;;;;5048563;28;21528;-60
2022/08/26 08:44:36;;;;;;;5.68;1.50;;;;;;;;;;5048795;28;20721;-60
2022/08/26 08:47:04;;;;;;;0.10;0.10;;;;;;;;;;5048915;28;20366;-62
2022/08/26 08:49:31;;;;;;;0.00;0.00;;;;;;;;;;5047787;28;20025;-60
2022/08/26 08:52:12;;;;;;;1.73;1.63;;;;;;;;;;5048347;28;20035;-60
2022/08/26 08:54:37;;;;;;;0.10;0.10;;;;;;;;;;5048408;28;20024;-60
2022/08/26 08:57:18;;;;;;;0.17;0.17;;;;;;;;;;5048540;28;20052;-62
2022/08/26 08:59:52;;;;;;;0.00;0.00;;;;;;;;;;5048780;28;20025;-61
2022/08/26 09:02:31;;;;;;;0.52;0.15;;;;;;;;;;5047816;28;20082;-60
2022/08/26 09:05:22;;;;;;;0.08;0.08;;;;;;;;;;5048465;28;20021;-60
2022/08/26 09:07:51;;;;;;;0.15;0.15;;;;;;;;;;5047620;28;20135;-60
2022/08/26 09:10:16;;;;;;;0.52;0.52;;;;;;;;;;5047030;28;20028;-60
2022/08/26 09:12:41;;;;;;;0.40;0.40;;;;;;;;;;5048383;28;20028;-59
2022/08/26 09:15:12;;;;;;;0.57;0.57;;;;;;;;;;5048176;28;20275;-60
2022/08/26 09:17:44;;;;;;;0.00;0.00;;;;;;;;;;5048606;28;20373;-61
2022/08/26 09:20:09;;;;;;;0.00;0.00;;;;;;;;;;5046983;28;20067;-61
2022/08/26 09:22:36;;;;;;;0.77;0.77;;;;;;;;;;5048292;28;20497;-61
2022/08/26 09:25:03;;;;;;;1.80;1.65;;;;;;;;;;5048131;28;20138;-61
2022/08/26 09:27:37;;;;;;;0.00;0.00;;;;;;;;;;5047691;28;20033;-60
2022/08/26 09:30:03;;;;;;;0.00;0.00;;;;;;;;;;5048632;28;20040;-60
2022/08/26 09:32:30;;;;;;;0.00;0.00;;;;;;;;;;5047880;28;20029;-61
2022/08/26 09:35:00;;;;;;;0.20;0.20;;;;;;;;;;5048311;28;20029;-60
2022/08/26 09:37:34;;;;;;;0.10;0.10;;;;;;;;;;5046301;28;20028;-61
2022/08/26 09:40:18;;;;;;;1.25;1.15;;;;;;;;;;5048422;28;20489;-61
2022/08/26 09:42:43;;;;;;;1.25;1.15;;;;;;;;;;5048085;28;20103;-60
2022/08/26 09:45:10;;;;;;;1.05;0.95;;;;;;;;;;5048149;28;20113;-61
2022/08/26 09:47:45;;;;;;;0.40;0.40;;;;;;;;;;5047958;28;20476;-60
2022/08/26 09:50:22;;;;;;;0.20;0.20;;;;;;;;;;5049470;28;20044;-60
2022/08/26 09:53:01;;;;;;;1.17;1.15;;;;;;;;;;5047956;28;20389;-60
2022/08/26 09:55:27;;;;;;;1.08;1.08;;;;;;;;;;5047705;28;20474;-60
2022/08/26 09:57:53;;;;;;;0.15;0.15;;;;;;;;;;5047817;28;20056;-61
2022/08/26 10:00:23;;;;;;;1.65;1.60;;;;;;;;;;5047454;28;20047;-61
2022/08/26 10:02:49;;;;;;;1.23;0.52;;;;;;;;;;5047753;28;20025;-60
2022/08/26 10:05:16;;;;;;;8.10;2.67;;;;;;;;;;5047464;28;20025;-61
2022/08/26 10:07:44;;;;;;;3.10;1.70;;;;;;;;;;5046965;28;20398;-60
2022/08/26 10:10:15;;;;;;;2.72;1.02;;;;;;;;;;5047201;28;20017;-60
2022/08/26 10:12:51;;;;;;;0.43;0.43;;;;;;;;;;5049349;28;20393;-59
2022/08/26 10:15:17;;;;;;;1.55;1.45;;;;;;;;;;5049922;28;20050;-60
2022/08/26 10:17:48;;;;;;;3.00;2.90;;;;;;;;;;5051235;28;20025;-61
2022/08/26 10:20:16;;;;;;;0.00;0.00;;;;;;;;;;5051509;28;20063;-61
2022/08/26 10:22:47;;;;;;;0.75;0.75;;;;;;;;;;5051622;28;20477;-61
2022/08/26 10:25:16;;;;;;;0.40;0.30;;;;;;;;;;5051339;28;20393;-59
2022/08/26 10:27:53;;;;;;;1.10;0.65;;;;;;;;;;5051239;28;20472;-60
2022/08/26 10:30:21;;;;;;;0.40;0.40;;;;;;;;;;5051295;28;20037;-60
2022/08/26 10:32:49;;;;;;;0.65;0.65;;;;;;;;;;5051189;28;20043;-60
2022/08/26 10:35:15;;;;;;;1.10;1.00;;;;;;;;;;5049864;28;20020;-59
2022/08/26 10:37:41;;;;;;;0.93;0.93;;;;;;;;;;5050913;28;20028;-61
2022/08/26 10:40:11;;;;;;;1.25;1.25;;;;;;;;;;5051155;28;20017;-61
2022/08/26 10:42:51;;;;;;;0.82;0.82;;;;;;;;;;5050767;28;20025;-60
2022/08/26 10:45:18;;;;;;;0.40;0.40;;;;;;;;;;5050559;28;20363;-60
2022/08/26 10:47:53;;;;;;;0.28;0.28;;;;;;;;;;5051233;28;20032;-60
2022/08/26 10:50:19;;;;;;;0.17;0.17;;;;;;;;;;5049685;28;20031;-60
2022/08/26 10:52:50;;;;;;;2.55;2.53;;;;;;;;;;5050657;28;20032;-60
2022/08/26 10:55:24;;;;;;;0.00;0.00;;;;;;;;;;5049829;28;20017;-60
2022/08/26 10:58:10;;;;;;;0.00;0.00;;;;;;;;;;5050469;28;20048;-60
2022/08/26 11:03:25;;;;;;;0.00;0.00;;;;;;;;;;5048871;28;20027;-61
2022/08/26 11:06:09;;;;;;;0.00;0.00;;;;;;;;;;5050326;28;20140;-61
2022/08/26 11:08:43;;;;;;;0.00;0.00;;;;;;;;;;5050049;28;20608;-60
2022/08/26 11:11:09;;;;;;;0.00;0.00;;;;;;;;;;5049678;28;20461;-60
2022/08/26 11:13:57;;;;;;;2.20;2.10;;;;;;;;;;5050099;28;20025;-60
2022/08/26 11:16:37;;;;;;;0.20;0.20;;;;;;;;;;5039417;28;20415;-60
2022/08/26 11:19:03;;;;;;;2.83;2.63;;;;;;;;;;5050229;28;20092;-61
2022/08/26 11:21:43;;;;;;;4.38;2.00;;;;;;;;;;5050118;28;20025;-60
2022/08/26 11:24:08;;;;;;;1.50;1.35;;;;;;;;;;5050109;28;20446;-60
2022/08/26 11:26:35;;;;;;;0.00;0.00;;;;;;;;;;5049576;28;20113;-61
2022/08/26 11:29:00;;;;;;;0.68;0.68;;;;;;;;;;5050218;28;20021;-60
2022/08/26 11:31:25;;;;;;;1.25;1.23;;;;;;;;;;5049739;28;20020;-61
2022/08/26 11:33:50;;;;;;;0.50;0.50;;;;;;;;;;5048524;28;20571;-61
2022/08/26 11:36:28;;;;;;;0.00;0.00;;;;;;;;;;5050160;28;20030;-61
2022/08/26 11:38:53;;;;;;;0.20;0.20;;;;;;;;;;5049804;28;20268;-60
2022/08/26 11:41:20;;;;;;;0.10;0.10;;;;;;;;;;5049490;28;20147;-59
2022/08/26 11:43:49;;;;;;;0.70;0.65;;;;;;;;;;5049581;28;20398;-60
2022/08/26 11:46:14;;;;;;;;;;;;;;;;;;5050278;28;20116;-60
2022/08/26 11:48:40;;;;;;;1.10;1.10;;;;;;;;;;5049189;28;19931;-60
2022/08/26 11:51:21;;;;;;;0.30;0.30;;;;;;;;;;5049664;28;20029;-61
2022/08/26 11:53:47;;;;;;;0.00;0.00;;;;;;;;;;5049585;28;20470;-61
2022/08/26 11:56:20;;;;;;;0.82;0.82;;;;;;;;;;5049465;28;20040;-61
2022/08/26 11:58:45;;;;;;;0.13;0.13;;;;;;;;;;5049694;28;20106;-60
2022/08/26 12:01:20;;;;;;;6.15;0.93;;;;;;;;;;5048624;28;20564;-60
2022/08/26 12:03:47;;;;;;;7.22;1.27;;;;;;;;;;5048901;28;20039;-61
2022/08/26 12:06:15;;;;;;;0.25;0.25;;;;;;;;;;5049463;28;20033;-60
2022/08/26 12:08:42;;;;;;;0.10;0.10;;;;;;;;;;5048666;28;20056;-60
2022/08/26 12:11:12;;;;;;;0.30;0.30;;;;;;;;;;5049527;28;20437;-60
2022/08/26 12:13:37;;;;;;;0.45;0.45;;;;;;;;;;5047662;28;20060;-59
2022/08/26 12:16:03;;;;;;;1.80;0.65;;;;;;;;;;5049358;28;20057;-60
2022/08/26 12:18:30;;;;;;;0.00;0.00;;;;;;;;;;5049077;28;20375;-60
2022/08/26 12:21:13;;;;;;;0.00;0.00;;;;;;;;;;5049336;28;20044;-60
2022/08/26 12:23:45;;;;;;;1.63;1.63;;;;;;;;;;5048819;28;20094;-60
2022/08/26 12:26:21;;;;;;;0.00;0.00;;;;;;;;;;5049342;28;20451;-60
2022/08/26 12:28:48;;;;;;;0.38;0.38;;;;;;;;;;5048903;28;20071;-61
2022/08/26 12:31:32;;;;;;;0.00;0.00;;;;;;;;;;5047813;28;20025;-59
2022/08/26 12:33:58;;;;;;;0.00;0.00;;;;;;;;;;5049155;28;20095;-60
2022/08/26 12:36:26;;;;;;;0.00;0.00;;;;;;;;;;5048327;28;20033;-60
2022/08/26 12:38:51;;;;;;;0.98;0.98;;;;;;;;;;5048959;28;20047;-61
2022/08/26 12:41:37;;;;;;;0.30;0.30;;;;;;;;;;5048824;28;20363;-60
2022/08/26 12:44:02;;;;;;;0.00;0.00;;;;;;;;;;5048816;28;20028;-59
2022/08/26 12:46:28;;;;;;;0.00;0.00;;;;;;;;;;5048011;28;20020;-60
2022/08/26 12:48:53;;;;;;;0.00;0.00;;;;;;;;;;5048609;28;20064;-61
2022/08/26 12:51:23;;;;;;;0.00;0.00;;;;;;;;;;5049152;28;20053;-60
2022/08/26 12:53:48;;;;;;;1.38;0.68;;;;;;;;;;5048750;28;20541;-60
2022/08/26 12:56:20;;;;;;;0.47;0.47;;;;;;;;;;5048558;28;20033;-60
2022/08/26 12:58:58;;;;;;;1.38;0.90;;;;;;;;;;5047128;28;20107;-61
2022/08/26 13:01:23;;;;;;;0.00;0.00;;;;;;;;;;5049718;28;20052;-61
2022/08/26 13:03:48;;;;;;;0.00;0.00;;;;;;;;;;5048540;28;20048;-61
2022/08/26 13:06:20;;;;;;;0.13;0.13;;;;;;;;;;5048441;28;20361;-60
2022/08/26 13:08:53;;;;;;;0.00;0.00;;;;;;;;;;5048557;28;20111;-60
2022/08/26 13:11:19;;;;;;;0.00;0.00;;;;;;;;;;5048877;28;20541;-61
2022/08/26 13:13:45;;;;;;;0.63;0.63;;;;;;;;;;5049158;28;20047;-60
2022/08/26 13:16:12;;;;;;;0.10;0.10;;;;;;;;;;5048772;28;20477;-60
2022/08/26 13:18:37;;;;;;;0.30;0.30;;;;;;;;;;5048071;28;20104;-60
2022/08/26 13:21:16;;;;;;;1.00;1.00;;;;;;;;;;5048338;28;20104;-61
2022/08/26 13:23:41;;;;;;;0.00;0.00;;;;;;;;;;5048320;28;20267;-61
2022/08/26 13:26:07;;;;;;;0.97;0.97;;;;;;;;;;5048398;28;20485;-60
2022/08/26 13:28:32;;;;;;;0.00;0.00;;;;;;;;;;5046748;28;21117;-61
2022/08/26 13:30:58;;;;;;;0.00;0.00;;;;;;;;;;5048230;28;20028;-61
2022/08/26 13:33:24;;;;;;;0.68;0.65;;;;;;;;;;5047660;28;20694;-60
2022/08/26 13:35:49;;;;;;;0.63;0.43;;;;;;;;;;5048592;28;20089;-60
2022/08/26 13:38:14;;;;;;;2.00;1.90;;;;;;;;;;5048276;28;20021;-60
2022/08/26 13:40:42;;;;;;;1.17;1.08;;;;;;;;;;5047723;28;20317;-60
2022/08/26 13:43:07;;;;;;;1.17;1.17;;;;;;;;;;5048533;28;20536;-60
2022/08/26 13:45:32;;;;;;;0.03;0.03;;;;;;;;;;5047985;28;20020;-61
2022/08/26 13:47:59;;;;;;;1.98;0.75;;;;;;;;;;5048733;28;20036;-61
2022/08/26 13:50:24;;;;;;;0.00;0.00;;;;;;;;;;5051523;28;20025;-60
2022/08/26 13:52:49;;;;;;;0.10;0.10;;;;;;;;;;5052106;28;20154;-60
2022/08/26 13:55:15;;;;;;;0.00;0.00;;;;;;;;;;5052200;28;20020;-60
2022/08/26 13:57:41;;;;;;;2.95;2.72;;;;;;;;;;5049972;28;20291;-60
2022/08/26 14:00:06;;;;;;;1.27;0.90;;;;;;;;;;5051757;28;20017;-61
2022/08/26 14:02:31;;;;;;;1.70;1.60;;;;;;;;;;5051223;28;20628;-61
2022/08/26 14:04:57;;;;;;;1.27;0.83;;;;;;;;;;5051685;28;20025;-61
2022/08/26 14:07:22;;;;;;;0.38;0.38;;;;;;;;;;5052071;28;20283;-60
2022/08/26 14:09:47;;;;;;;0.85;0.85;;;;;;;;;;5051620;28;20037;-60
2022/08/26 14:12:12;;;;;;;1.58;1.48;;;;;;;;;;5051746;28;20417;-60
2022/08/26 14:14:38;;;;;;;1.50;1.13;;;;;;;;;;5051310;28;20025;-61
2022/08/26 14:17:03;;;;;;;1.08;0.75;;;;;;;;;;5051828;28;20075;-61
2022/08/26 14:19:29;;;;;;;0.40;0.40;;;;;;;;;;5050825;28;20386;-61
2022/08/26 14:21:54;;;;;;;0.32;0.32;;;;;;;;;;5051449;28;20048;-61
2022/08/26 14:24:19;;;;;;;5.15;2.30;;;;;;;;;;5051671;28;20021;-61
2022/08/26 14:26:47;;;;;;;7.33;2.60;;;;;;;;;;5049676;28;20468;-61
2022/08/26 14:29:12;;;;;;;4.32;3.95;;;;;;;;;;5051047;28;20620;-59
2022/08/26 14:31:37;;;;;;;2.72;2.53;;;;;;;;;;5052859;28;20025;-60
2022/08/26 14:34:04;;;;;;;2.47;2.27;;;;;;;;;;5047805;28;20029;-60
2022/08/26 14:36:31;;;;;;;0.00;0.00;;;;;;;;;;5049814;28;20366;-61
2022/08/26 14:39:01;;;;;;;4.82;3.67;;;;;;;;;;5050854;28;20771;-60
2022/08/26 14:41:27;;;;;;;2.63;1.95;;;;;;;;;;5048426;28;20056;-61
2022/08/26 14:44:03;;;;;;;2.75;2.55;;;;;;;;;;5047596;28;20071;-60
2022/08/26 14:46:30;;;;;;;0.82;0.82;;;;;;;;;;5049751;28;20021;-61
2022/08/26 14:48:55;;;;;;;3.92;3.60;;;;;;;;;;5049992;28;20425;-60